sensor_id;sensor_type;location;lat;lon;timestamp;P1;durP1;ratioP1;P2;durP2;ratioP2
51852;SDS011;37894;53.172;6.598;2023-08-07T00:00:11;9.30;;;4.95;;
51852;SDS011;37894;53.172;6.598;2023-08-07T00:02:37;8.23;;;5.32;;
51852;SDS011;37894;53.172;6.598;2023-08-07T00:05:03;11.18;;;5.63;;
51852;SDS011;37894;53.172;6.598;2023-08-07T00:07:30;9.30;;;5.30;;
51852;SDS011;37894;53.172;6.598;2023-08-07T00:09:56;8.45;;;5.55;;
51852;SDS011;37894;53.172;6.598;2023-08-07T00:12:22;11.73;;;5.47;;
51852;SDS011;37894;53.172;6.598;2023-08-07T00:14:50;11.25;;;5.85;;
51852;SDS011;37894;53.172;6.598;2023-08-07T00:17:16;17.60;;;6.53;;
51852;SDS011;37894;53.172;6.598;2023-08-07T00:19:42;10.70;;;5.10;;
51852;SDS011;37894;53.172;6.598;2023-08-07T00:22:07;10.30;;;5.25;;
51852;SDS011;37894;53.172;6.598;2023-08-07T00:24:33;10.45;;;5.60;;
51852;SDS011;37894;53.172;6.598;2023-08-07T00:26:59;11.50;;;5.13;;
51852;SDS011;37894;53.172;6.598;2023-08-07T00:29:24;10.98;;;5.13;;
51852;SDS011;37894;53.172;6.598;2023-08-07T00:31:50;8.60;;;4.50;;
51852;SDS011;37894;53.172;6.598;2023-08-07T00:34:16;8.60;;;4.45;;
51852;SDS011;37894;53.172;6.598;2023-08-07T00:36:41;6.68;;;4.10;;
51852;SDS011;37894;53.172;6.598;2023-08-07T00:39:07;8.60;;;4.45;;
51852;SDS011;37894;53.172;6.598;2023-08-07T00:41:33;10.20;;;4.57;;
51852;SDS011;37894;53.172;6.598;2023-08-07T00:43:59;10.23;;;4.13;;
51852;SDS011;37894;53.172;6.598;2023-08-07T00:46:25;7.50;;;4.07;;
51852;SDS011;37894;53.172;6.598;2023-08-07T00:48:52;11.35;;;4.18;;
51852;SDS011;37894;53.172;6.598;2023-08-07T00:51:19;9.98;;;4.20;;
51852;SDS011;37894;53.172;6.598;2023-08-07T00:53:45;8.55;;;4.00;;
51852;SDS011;37894;53.172;6.598;2023-08-07T00:56:12;5.75;;;3.92;;
51852;SDS011;37894;53.172;6.598;2023-08-07T00:58:38;8.05;;;3.60;;
51852;SDS011;37894;53.172;6.598;2023-08-07T01:01:04;6.00;;;3.60;;
51852;SDS011;37894;53.172;6.598;2023-08-07T01:03:30;5.32;;;3.20;;
51852;SDS011;37894;53.172;6.598;2023-08-07T01:05:56;6.15;;;3.55;;
51852;SDS011;37894;53.172;6.598;2023-08-07T01:08:25;6.65;;;3.33;;
51852;SDS011;37894;53.172;6.598;2023-08-07T01:11:02;7.80;;;3.60;;
51852;SDS011;37894;53.172;6.598;2023-08-07T01:19:06;9.73;;;3.72;;
51852;SDS011;37894;53.172;6.598;2023-08-07T01:21:43;6.78;;;3.42;;
51852;SDS011;37894;53.172;6.598;2023-08-07T01:24:13;6.00;;;3.20;;
51852;SDS011;37894;53.172;6.598;2023-08-07T01:26:38;9.52;;;3.30;;
51852;SDS011;37894;53.172;6.598;2023-08-07T01:29:15;8.35;;;3.63;;
51852;SDS011;37894;53.172;6.598;2023-08-07T01:31:49;8.18;;;3.00;;
51852;SDS011;37894;53.172;6.598;2023-08-07T01:34:20;11.45;;;3.80;;
51852;SDS011;37894;53.172;6.598;2023-08-07T01:36:47;5.65;;;3.30;;
51852;SDS011;37894;53.172;6.598;2023-08-07T01:39:14;7.03;;;3.38;;
51852;SDS011;37894;53.172;6.598;2023-08-07T01:41:42;12.18;;;3.75;;
51852;SDS011;37894;53.172;6.598;2023-08-07T01:44:08;7.25;;;3.20;;
51852;SDS011;37894;53.172;6.598;2023-08-07T01:46:34;8.75;;;3.90;;
51852;SDS011;37894;53.172;6.598;2023-08-07T01:49:00;7.20;;;3.42;;
51852;SDS011;37894;53.172;6.598;2023-08-07T01:51:25;11.50;;;3.58;;
51852;SDS011;37894;53.172;6.598;2023-08-07T01:53:51;8.52;;;4.95;;
51852;SDS011;37894;53.172;6.598;2023-08-07T01:56:17;6.97;;;3.70;;
51852;SDS011;37894;53.172;6.598;2023-08-07T01:58:43;6.72;;;3.42;;
51852;SDS011;37894;53.172;6.598;2023-08-07T02:01:09;10.40;;;4.07;;
51852;SDS011;37894;53.172;6.598;2023-08-07T02:03:34;7.32;;;3.70;;
51852;SDS011;37894;53.172;6.598;2023-08-07T02:06:00;9.52;;;3.45;;
51852;SDS011;37894;53.172;6.598;2023-08-07T02:08:27;13.95;;;4.05;;
51852;SDS011;37894;53.172;6.598;2023-08-07T02:10:53;8.10;;;3.80;;
51852;SDS011;37894;53.172;6.598;2023-08-07T02:13:19;5.93;;;3.60;;
51852;SDS011;37894;53.172;6.598;2023-08-07T02:15:45;12.75;;;3.97;;
51852;SDS011;37894;53.172;6.598;2023-08-07T02:18:10;9.32;;;3.40;;
51852;SDS011;37894;53.172;6.598;2023-08-07T02:20:36;9.45;;;3.35;;
51852;SDS011;37894;53.172;6.598;2023-08-07T02:23:02;8.57;;;3.03;;
51852;SDS011;37894;53.172;6.598;2023-08-07T02:25:28;9.75;;;3.47;;
51852;SDS011;37894;53.172;6.598;2023-08-07T02:27:53;11.85;;;3.55;;
51852;SDS011;37894;53.172;6.598;2023-08-07T02:30:19;11.73;;;3.83;;
51852;SDS011;37894;53.172;6.598;2023-08-07T02:32:44;9.73;;;3.60;;
51852;SDS011;37894;53.172;6.598;2023-08-07T02:35:11;8.10;;;3.47;;
51852;SDS011;37894;53.172;6.598;2023-08-07T02:37:37;8.55;;;3.08;;
51852;SDS011;37894;53.172;6.598;2023-08-07T02:40:03;10.60;;;3.50;;
51852;SDS011;37894;53.172;6.598;2023-08-07T02:42:29;10.30;;;3.42;;
51852;SDS011;37894;53.172;6.598;2023-08-07T02:44:55;8.55;;;3.05;;
51852;SDS011;37894;53.172;6.598;2023-08-07T02:47:21;7.45;;;3.60;;
51852;SDS011;37894;53.172;6.598;2023-08-07T02:49:46;11.48;;;3.47;;
51852;SDS011;37894;53.172;6.598;2023-08-07T02:52:12;11.38;;;3.88;;
51852;SDS011;37894;53.172;6.598;2023-08-07T02:54:38;10.52;;;3.25;;
51852;SDS011;37894;53.172;6.598;2023-08-07T02:57:03;10.40;;;3.58;;
51852;SDS011;37894;53.172;6.598;2023-08-07T02:59:29;16.08;;;3.70;;
51852;SDS011;37894;53.172;6.598;2023-08-07T03:01:55;11.43;;;4.00;;
51852;SDS011;37894;53.172;6.598;2023-08-07T03:04:21;15.68;;;3.67;;
51852;SDS011;37894;53.172;6.598;2023-08-07T03:06:47;12.60;;;3.95;;
51852;SDS011;37894;53.172;6.598;2023-08-07T03:09:13;14.40;;;4.05;;
51852;SDS011;37894;53.172;6.598;2023-08-07T03:11:38;12.88;;;3.88;;
51852;SDS011;37894;53.172;6.598;2023-08-07T03:14:04;11.73;;;3.97;;
51852;SDS011;37894;53.172;6.598;2023-08-07T03:16:30;14.45;;;4.57;;
51852;SDS011;37894;53.172;6.598;2023-08-07T03:18:55;15.45;;;4.50;;
51852;SDS011;37894;53.172;6.598;2023-08-07T03:21:22;12.65;;;4.55;;
51852;SDS011;37894;53.172;6.598;2023-08-07T03:23:47;14.65;;;4.38;;
51852;SDS011;37894;53.172;6.598;2023-08-07T03:26:13;16.27;;;4.35;;
51852;SDS011;37894;53.172;6.598;2023-08-07T03:28:39;12.13;;;4.28;;
51852;SDS011;37894;53.172;6.598;2023-08-07T03:31:05;10.63;;;4.20;;
51852;SDS011;37894;53.172;6.598;2023-08-07T03:33:31;11.85;;;3.88;;
51852;SDS011;37894;53.172;6.598;2023-08-07T03:35:56;14.93;;;4.53;;
51852;SDS011;37894;53.172;6.598;2023-08-07T03:38:23;12.95;;;4.35;;
51852;SDS011;37894;53.172;6.598;2023-08-07T03:40:49;12.60;;;4.00;;
51852;SDS011;37894;53.172;6.598;2023-08-07T03:43:14;12.43;;;4.18;;
51852;SDS011;37894;53.172;6.598;2023-08-07T03:45:41;14.30;;;4.47;;
51852;SDS011;37894;53.172;6.598;2023-08-07T03:48:07;8.27;;;3.70;;
51852;SDS011;37894;53.172;6.598;2023-08-07T03:50:33;12.70;;;3.65;;
51852;SDS011;37894;53.172;6.598;2023-08-07T03:53:05;12.85;;;4.03;;
51852;SDS011;37894;53.172;6.598;2023-08-07T03:55:32;16.65;;;4.55;;
51852;SDS011;37894;53.172;6.598;2023-08-07T03:57:58;11.93;;;4.22;;
51852;SDS011;37894;53.172;6.598;2023-08-07T04:00:23;14.80;;;4.57;;
51852;SDS011;37894;53.172;6.598;2023-08-07T04:02:49;14.95;;;4.68;;
51852;SDS011;37894;53.172;6.598;2023-08-07T04:05:15;10.23;;;4.45;;
51852;SDS011;37894;53.172;6.598;2023-08-07T04:07:40;10.55;;;3.92;;
51852;SDS011;37894;53.172;6.598;2023-08-07T04:10:06;9.93;;;3.78;;
51852;SDS011;37894;53.172;6.598;2023-08-07T04:12:32;10.52;;;3.75;;
51852;SDS011;37894;53.172;6.598;2023-08-07T04:14:58;8.27;;;3.65;;
51852;SDS011;37894;53.172;6.598;2023-08-07T04:17:23;13.52;;;4.90;;
51852;SDS011;37894;53.172;6.598;2023-08-07T04:19:49;10.15;;;3.88;;
51852;SDS011;37894;53.172;6.598;2023-08-07T04:22:15;11.82;;;4.88;;
51852;SDS011;37894;53.172;6.598;2023-08-07T04:24:40;14.93;;;4.18;;
51852;SDS011;37894;53.172;6.598;2023-08-07T04:27:06;13.43;;;4.00;;
51852;SDS011;37894;53.172;6.598;2023-08-07T04:29:33;16.60;;;4.05;;
51852;SDS011;37894;53.172;6.598;2023-08-07T04:31:59;16.15;;;4.78;;
51852;SDS011;37894;53.172;6.598;2023-08-07T04:34:24;10.90;;;4.22;;
51852;SDS011;37894;53.172;6.598;2023-08-07T04:36:50;12.73;;;4.28;;
51852;SDS011;37894;53.172;6.598;2023-08-07T04:39:18;11.32;;;3.70;;
51852;SDS011;37894;53.172;6.598;2023-08-07T04:41:44;18.92;;;4.28;;
51852;SDS011;37894;53.172;6.598;2023-08-07T04:44:10;12.95;;;3.97;;
51852;SDS011;37894;53.172;6.598;2023-08-07T04:46:36;26.13;;;6.07;;
51852;SDS011;37894;53.172;6.598;2023-08-07T04:49:02;13.73;;;4.22;;
51852;SDS011;37894;53.172;6.598;2023-08-07T04:51:28;13.07;;;4.50;;
51852;SDS011;37894;53.172;6.598;2023-08-07T04:53:55;27.70;;;6.05;;
51852;SDS011;37894;53.172;6.598;2023-08-07T04:56:21;20.95;;;6.00;;
51852;SDS011;37894;53.172;6.598;2023-08-07T04:58:47;20.50;;;5.35;;
51852;SDS011;37894;53.172;6.598;2023-08-07T05:01:13;18.75;;;5.57;;
51852;SDS011;37894;53.172;6.598;2023-08-07T05:03:39;17.80;;;5.22;;
51852;SDS011;37894;53.172;6.598;2023-08-07T05:06:05;14.80;;;4.43;;
51852;SDS011;37894;53.172;6.598;2023-08-07T05:08:30;14.70;;;5.30;;
51852;SDS011;37894;53.172;6.598;2023-08-07T05:10:56;19.77;;;5.72;;
51852;SDS011;37894;53.172;6.598;2023-08-07T05:13:22;21.52;;;5.18;;
51852;SDS011;37894;53.172;6.598;2023-08-07T05:15:47;16.30;;;4.70;;
51852;SDS011;37894;53.172;6.598;2023-08-07T05:18:15;15.07;;;4.60;;
51852;SDS011;37894;53.172;6.598;2023-08-07T05:20:41;19.90;;;4.97;;
51852;SDS011;37894;53.172;6.598;2023-08-07T05:23:07;14.88;;;4.65;;
51852;SDS011;37894;53.172;6.598;2023-08-07T05:25:33;22.05;;;4.63;;
51852;SDS011;37894;53.172;6.598;2023-08-07T05:27:59;19.15;;;4.80;;
51852;SDS011;37894;53.172;6.598;2023-08-07T05:30:25;19.98;;;5.28;;
51852;SDS011;37894;53.172;6.598;2023-08-07T05:32:50;20.83;;;4.95;;
51852;SDS011;37894;53.172;6.598;2023-08-07T05:35:16;16.45;;;4.55;;
51852;SDS011;37894;53.172;6.598;2023-08-07T05:37:42;16.60;;;5.30;;
51852;SDS011;37894;53.172;6.598;2023-08-07T05:40:07;19.85;;;4.85;;
51852;SDS011;37894;53.172;6.598;2023-08-07T05:42:34;18.08;;;4.20;;
51852;SDS011;37894;53.172;6.598;2023-08-07T05:45:00;19.65;;;4.97;;
51852;SDS011;37894;53.172;6.598;2023-08-07T05:47:26;18.52;;;5.10;;
51852;SDS011;37894;53.172;6.598;2023-08-07T05:49:51;22.50;;;6.20;;
51852;SDS011;37894;53.172;6.598;2023-08-07T05:52:17;18.00;;;4.80;;
51852;SDS011;37894;53.172;6.598;2023-08-07T05:54:43;23.60;;;6.03;;
51852;SDS011;37894;53.172;6.598;2023-08-07T05:57:09;19.63;;;5.28;;
51852;SDS011;37894;53.172;6.598;2023-08-07T05:59:35;16.90;;;4.65;;
51852;SDS011;37894;53.172;6.598;2023-08-07T06:02:02;15.60;;;5.03;;
51852;SDS011;37894;53.172;6.598;2023-08-07T06:04:28;16.52;;;4.88;;
51852;SDS011;37894;53.172;6.598;2023-08-07T06:06:54;20.27;;;3.90;;
51852;SDS011;37894;53.172;6.598;2023-08-07T06:09:19;12.52;;;4.13;;
51852;SDS011;37894;53.172;6.598;2023-08-07T06:11:47;20.90;;;4.38;;
51852;SDS011;37894;53.172;6.598;2023-08-07T06:14:13;15.13;;;4.13;;
51852;SDS011;37894;53.172;6.598;2023-08-07T06:16:38;16.95;;;4.00;;
51852;SDS011;37894;53.172;6.598;2023-08-07T06:19:04;19.23;;;3.70;;
51852;SDS011;37894;53.172;6.598;2023-08-07T06:21:30;14.65;;;3.63;;
51852;SDS011;37894;53.172;6.598;2023-08-07T06:23:56;17.23;;;4.35;;
51852;SDS011;37894;53.172;6.598;2023-08-07T06:26:22;19.13;;;4.55;;
51852;SDS011;37894;53.172;6.598;2023-08-07T06:28:47;16.50;;;3.85;;
51852;SDS011;37894;53.172;6.598;2023-08-07T06:31:15;17.25;;;4.60;;
51852;SDS011;37894;53.172;6.598;2023-08-07T06:33:41;17.38;;;3.67;;
51852;SDS011;37894;53.172;6.598;2023-08-07T06:36:07;13.40;;;4.32;;
51852;SDS011;37894;53.172;6.598;2023-08-07T06:38:36;15.70;;;3.10;;
51852;SDS011;37894;53.172;6.598;2023-08-07T06:41:02;13.27;;;3.42;;
51852;SDS011;37894;53.172;6.598;2023-08-07T06:43:28;15.98;;;3.42;;
51852;SDS011;37894;53.172;6.598;2023-08-07T06:45:54;12.52;;;3.20;;
51852;SDS011;37894;53.172;6.598;2023-08-07T06:48:20;14.35;;;3.20;;
51852;SDS011;37894;53.172;6.598;2023-08-07T06:50:46;9.27;;;2.58;;
51852;SDS011;37894;53.172;6.598;2023-08-07T06:53:13;11.85;;;2.95;;
51852;SDS011;37894;53.172;6.598;2023-08-07T06:55:38;9.98;;;2.35;;
51852;SDS011;37894;53.172;6.598;2023-08-07T06:58:06;9.40;;;2.65;;
51852;SDS011;37894;53.172;6.598;2023-08-07T07:00:33;11.73;;;3.08;;
51852;SDS011;37894;53.172;6.598;2023-08-07T07:03:00;13.70;;;3.20;;
51852;SDS011;37894;53.172;6.598;2023-08-07T07:05:26;10.70;;;2.55;;
51852;SDS011;37894;53.172;6.598;2023-08-07T07:07:52;16.02;;;3.22;;
51852;SDS011;37894;53.172;6.598;2023-08-07T07:10:22;9.15;;;3.13;;
51852;SDS011;37894;53.172;6.598;2023-08-07T07:12:48;13.25;;;3.28;;
51852;SDS011;37894;53.172;6.598;2023-08-07T07:15:13;10.00;;;3.45;;
51852;SDS011;37894;53.172;6.598;2023-08-07T07:17:40;14.07;;;3.78;;
51852;SDS011;37894;53.172;6.598;2023-08-07T07:20:06;11.27;;;2.55;;
51852;SDS011;37894;53.172;6.598;2023-08-07T07:22:34;11.25;;;2.60;;
51852;SDS011;37894;53.172;6.598;2023-08-07T07:25:00;11.30;;;2.70;;
51852;SDS011;37894;53.172;6.598;2023-08-07T07:27:25;13.60;;;2.80;;
51852;SDS011;37894;53.172;6.598;2023-08-07T07:29:51;11.35;;;2.83;;
51852;SDS011;37894;53.172;6.598;2023-08-07T07:32:17;12.48;;;3.13;;
51852;SDS011;37894;53.172;6.598;2023-08-07T07:34:43;14.80;;;3.22;;
51852;SDS011;37894;53.172;6.598;2023-08-07T07:37:09;13.20;;;3.15;;
51852;SDS011;37894;53.172;6.598;2023-08-07T07:39:35;11.77;;;3.58;;
51852;SDS011;37894;53.172;6.598;2023-08-07T07:42:01;12.77;;;3.10;;
51852;SDS011;37894;53.172;6.598;2023-08-07T07:44:26;9.20;;;2.72;;
51852;SDS011;37894;53.172;6.598;2023-08-07T07:46:52;11.30;;;3.47;;
51852;SDS011;37894;53.172;6.598;2023-08-07T07:49:18;12.05;;;3.20;;
51852;SDS011;37894;53.172;6.598;2023-08-07T07:51:44;12.18;;;3.58;;
51852;SDS011;37894;53.172;6.598;2023-08-07T07:54:10;13.73;;;3.25;;
51852;SDS011;37894;53.172;6.598;2023-08-07T07:56:36;11.75;;;3.20;;
51852;SDS011;37894;53.172;6.598;2023-08-07T07:59:02;9.20;;;3.30;;
51852;SDS011;37894;53.172;6.598;2023-08-07T08:01:28;10.70;;;3.15;;
51852;SDS011;37894;53.172;6.598;2023-08-07T08:03:53;11.38;;;3.47;;
51852;SDS011;37894;53.172;6.598;2023-08-07T08:06:19;12.88;;;3.30;;
51852;SDS011;37894;53.172;6.598;2023-08-07T08:08:45;11.68;;;3.38;;
51852;SDS011;37894;53.172;6.598;2023-08-07T08:11:11;14.38;;;4.10;;
51852;SDS011;37894;53.172;6.598;2023-08-07T08:13:36;14.30;;;4.22;;
51852;SDS011;37894;53.172;6.598;2023-08-07T08:16:04;17.30;;;4.05;;
51852;SDS011;37894;53.172;6.598;2023-08-07T08:18:30;10.02;;;3.63;;
51852;SDS011;37894;53.172;6.598;2023-08-07T08:20:56;16.05;;;3.97;;
51852;SDS011;37894;53.172;6.598;2023-08-07T08:23:21;13.93;;;3.42;;
51852;SDS011;37894;53.172;6.598;2023-08-07T08:25:47;19.38;;;4.03;;
51852;SDS011;37894;53.172;6.598;2023-08-07T08:28:14;10.50;;;3.50;;
51852;SDS011;37894;53.172;6.598;2023-08-07T08:30:41;13.10;;;3.70;;
51852;SDS011;37894;53.172;6.598;2023-08-07T08:33:07;10.82;;;3.50;;
51852;SDS011;37894;53.172;6.598;2023-08-07T08:35:36;13.25;;;4.32;;
51852;SDS011;37894;53.172;6.598;2023-08-07T08:38:02;12.95;;;4.35;;
51852;SDS011;37894;53.172;6.598;2023-08-07T08:40:28;16.17;;;4.63;;
51852;SDS011;37894;53.172;6.598;2023-08-07T08:42:55;18.60;;;4.13;;
51852;SDS011;37894;53.172;6.598;2023-08-07T08:45:25;15.73;;;4.00;;
51852;SDS011;37894;53.172;6.598;2023-08-07T08:47:51;11.95;;;3.88;;
51852;SDS011;37894;53.172;6.598;2023-08-07T08:50:23;13.18;;;3.70;;
51852;SDS011;37894;53.172;6.598;2023-08-07T08:52:49;15.77;;;4.32;;
51852;SDS011;37894;53.172;6.598;2023-08-07T08:55:19;17.58;;;4.90;;
51852;SDS011;37894;53.172;6.598;2023-08-07T08:57:46;18.30;;;3.65;;
51852;SDS011;37894;53.172;6.598;2023-08-07T09:00:13;18.05;;;3.42;;
51852;SDS011;37894;53.172;6.598;2023-08-07T09:02:46;12.05;;;2.95;;
51852;SDS011;37894;53.172;6.598;2023-08-07T09:05:14;12.60;;;2.90;;
51852;SDS011;37894;53.172;6.598;2023-08-07T09:07:40;11.90;;;3.38;;
51852;SDS011;37894;53.172;6.598;2023-08-07T09:10:06;11.57;;;2.70;;
51852;SDS011;37894;53.172;6.598;2023-08-07T09:12:34;10.30;;;2.60;;
51852;SDS011;37894;53.172;6.598;2023-08-07T09:15:05;13.27;;;3.45;;
51852;SDS011;37894;53.172;6.598;2023-08-07T09:17:33;11.43;;;3.42;;
51852;SDS011;37894;53.172;6.598;2023-08-07T09:20:04;12.93;;;3.55;;
51852;SDS011;37894;53.172;6.598;2023-08-07T09:22:31;9.95;;;2.75;;
51852;SDS011;37894;53.172;6.598;2023-08-07T09:24:57;12.00;;;2.80;;
51852;SDS011;37894;53.172;6.598;2023-08-07T09:27:25;10.50;;;2.30;;
51852;SDS011;37894;53.172;6.598;2023-08-07T09:29:51;10.93;;;2.85;;
51852;SDS011;37894;53.172;6.598;2023-08-07T09:32:19;10.02;;;2.55;;
51852;SDS011;37894;53.172;6.598;2023-08-07T09:34:47;13.38;;;2.83;;
51852;SDS011;37894;53.172;6.598;2023-08-07T09:37:14;10.93;;;2.67;;
51852;SDS011;37894;53.172;6.598;2023-08-07T09:39:40;9.95;;;2.80;;
51852;SDS011;37894;53.172;6.598;2023-08-07T09:42:15;7.35;;;2.45;;
51852;SDS011;37894;53.172;6.598;2023-08-07T09:44:44;11.68;;;2.90;;
51852;SDS011;37894;53.172;6.598;2023-08-07T09:47:15;7.50;;;2.25;;
51852;SDS011;37894;53.172;6.598;2023-08-07T09:49:45;8.63;;;2.55;;
51852;SDS011;37894;53.172;6.598;2023-08-07T09:52:12;13.18;;;2.50;;
51852;SDS011;37894;53.172;6.598;2023-08-07T09:54:39;10.77;;;2.88;;
51852;SDS011;37894;53.172;6.598;2023-08-07T09:57:05;8.35;;;2.42;;
51852;SDS011;37894;53.172;6.598;2023-08-07T09:59:32;9.63;;;2.17;;
51852;SDS011;37894;53.172;6.598;2023-08-07T10:01:59;7.53;;;2.53;;
51852;SDS011;37894;53.172;6.598;2023-08-07T10:04:29;9.50;;;2.42;;
51852;SDS011;37894;53.172;6.598;2023-08-07T10:06:56;8.82;;;2.08;;
51852;SDS011;37894;53.172;6.598;2023-08-07T10:09:22;8.73;;;2.38;;
51852;SDS011;37894;53.172;6.598;2023-08-07T10:11:48;9.82;;;3.45;;
51852;SDS011;37894;53.172;6.598;2023-08-07T10:14:15;6.10;;;2.30;;
51852;SDS011;37894;53.172;6.598;2023-08-07T10:16:40;8.82;;;2.30;;
51852;SDS011;37894;53.172;6.598;2023-08-07T10:19:09;8.15;;;2.90;;
51852;SDS011;37894;53.172;6.598;2023-08-07T10:21:35;8.85;;;2.05;;
51852;SDS011;37894;53.172;6.598;2023-08-07T10:24:03;7.28;;;2.35;;
51852;SDS011;37894;53.172;6.598;2023-08-07T10:26:31;8.55;;;3.40;;
51852;SDS011;37894;53.172;6.598;2023-08-07T10:28:59;10.77;;;2.55;;
51852;SDS011;37894;53.172;6.598;2023-08-07T10:31:27;6.03;;;2.33;;
51852;SDS011;37894;53.172;6.598;2023-08-07T10:33:55;8.32;;;2.22;;
51852;SDS011;37894;53.172;6.598;2023-08-07T10:36:21;8.63;;;2.85;;
51852;SDS011;37894;53.172;6.598;2023-08-07T10:38:49;10.18;;;2.83;;
51852;SDS011;37894;53.172;6.598;2023-08-07T10:41:18;11.73;;;3.03;;
51852;SDS011;37894;53.172;6.598;2023-08-07T10:43:45;11.18;;;3.20;;
51852;SDS011;37894;53.172;6.598;2023-08-07T10:46:14;9.80;;;2.50;;
51852;SDS011;37894;53.172;6.598;2023-08-07T10:48:41;12.73;;;2.58;;
51852;SDS011;37894;53.172;6.598;2023-08-07T10:51:08;10.23;;;2.60;;
51852;SDS011;37894;53.172;6.598;2023-08-07T10:53:41;9.38;;;3.10;;
51852;SDS011;37894;53.172;6.598;2023-08-07T10:56:31;5.55;;;2.05;;
51852;SDS011;37894;53.172;6.598;2023-08-07T11:01:40;6.82;;;2.17;;
51852;SDS011;37894;53.172;6.598;2023-08-07T11:04:08;5.07;;;1.42;;
51852;SDS011;37894;53.172;6.598;2023-08-07T11:06:35;15.32;;;2.10;;
51852;SDS011;37894;53.172;6.598;2023-08-07T11:09:03;7.53;;;1.58;;
51852;SDS011;37894;53.172;6.598;2023-08-07T11:11:41;6.00;;;2.08;;
51852;SDS011;37894;53.172;6.598;2023-08-07T11:14:10;11.70;;;2.00;;
51852;SDS011;37894;53.172;6.598;2023-08-07T11:16:40;8.80;;;1.75;;
51852;SDS011;37894;53.172;6.598;2023-08-07T11:19:06;14.70;;;2.97;;
51852;SDS011;37894;53.172;6.598;2023-08-07T11:21:33;9.80;;;2.78;;
51852;SDS011;37894;53.172;6.598;2023-08-07T11:23:59;8.35;;;1.88;;
51852;SDS011;37894;53.172;6.598;2023-08-07T11:26:26;11.73;;;2.35;;
51852;SDS011;37894;53.172;6.598;2023-08-07T11:28:53;7.90;;;2.30;;
51852;SDS011;37894;53.172;6.598;2023-08-07T11:31:19;8.20;;;2.28;;
51852;SDS011;37894;53.172;6.598;2023-08-07T11:33:46;6.65;;;1.92;;
51852;SDS011;37894;53.172;6.598;2023-08-07T11:36:15;6.28;;;1.90;;
51852;SDS011;37894;53.172;6.598;2023-08-07T11:38:41;8.52;;;2.45;;
51852;SDS011;37894;53.172;6.598;2023-08-07T11:41:11;6.38;;;2.03;;
51852;SDS011;37894;53.172;6.598;2023-08-07T11:43:39;10.32;;;2.35;;
51852;SDS011;37894;53.172;6.598;2023-08-07T11:46:06;5.97;;;1.95;;
51852;SDS011;37894;53.172;6.598;2023-08-07T11:48:34;8.32;;;2.40;;
51852;SDS011;37894;53.172;6.598;2023-08-07T11:51:01;7.05;;;1.80;;
51852;SDS011;37894;53.172;6.598;2023-08-07T11:53:33;8.52;;;1.98;;
51852;SDS011;37894;53.172;6.598;2023-08-07T11:58:27;5.22;;;1.50;;
51852;SDS011;37894;53.172;6.598;2023-08-07T12:03:41;8.02;;;2.10;;
51852;SDS011;37894;53.172;6.598;2023-08-07T12:06:08;11.93;;;2.85;;
51852;SDS011;37894;53.172;6.598;2023-08-07T12:11:14;7.63;;;2.30;;
51852;SDS011;37894;53.172;6.598;2023-08-07T12:13:41;7.90;;;2.33;;
51852;SDS011;37894;53.172;6.598;2023-08-07T12:16:07;9.02;;;2.30;;
51852;SDS011;37894;53.172;6.598;2023-08-07T12:18:34;9.23;;;2.75;;
51852;SDS011;37894;53.172;6.598;2023-08-07T12:21:03;9.85;;;2.00;;
51852;SDS011;37894;53.172;6.598;2023-08-07T12:23:32;8.23;;;2.13;;
51852;SDS011;37894;53.172;6.598;2023-08-07T12:25:59;5.60;;;2.00;;
51852;SDS011;37894;53.172;6.598;2023-08-07T12:28:25;6.45;;;2.00;;
51852;SDS011;37894;53.172;6.598;2023-08-07T12:30:51;5.97;;;2.00;;
51852;SDS011;37894;53.172;6.598;2023-08-07T12:33:17;7.22;;;2.40;;
51852;SDS011;37894;53.172;6.598;2023-08-07T12:35:43;4.10;;;1.90;;
51852;SDS011;37894;53.172;6.598;2023-08-07T12:38:09;6.73;;;2.07;;
51852;SDS011;37894;53.172;6.598;2023-08-07T12:40:36;7.53;;;2.55;;
51852;SDS011;37894;53.172;6.598;2023-08-07T12:43:02;11.63;;;2.30;;
51852;SDS011;37894;53.172;6.598;2023-08-07T12:45:31;7.78;;;2.45;;
51852;SDS011;37894;53.172;6.598;2023-08-07T12:47:58;5.35;;;2.35;;
51852;SDS011;37894;53.172;6.598;2023-08-07T12:50:25;7.95;;;2.20;;
51852;SDS011;37894;53.172;6.598;2023-08-07T12:52:51;8.13;;;2.38;;
51852;SDS011;37894;53.172;6.598;2023-08-07T12:55:17;8.68;;;1.88;;
51852;SDS011;37894;53.172;6.598;2023-08-07T12:57:44;7.18;;;2.47;;
51852;SDS011;37894;53.172;6.598;2023-08-07T13:00:10;7.57;;;1.75;;
51852;SDS011;37894;53.172;6.598;2023-08-07T13:02:40;5.38;;;1.67;;
51852;SDS011;37894;53.172;6.598;2023-08-07T13:05:07;7.15;;;1.90;;
51852;SDS011;37894;53.172;6.598;2023-08-07T13:07:34;10.48;;;2.13;;
51852;SDS011;37894;53.172;6.598;2023-08-07T13:10:00;5.03;;;1.60;;
51852;SDS011;37894;53.172;6.598;2023-08-07T13:12:26;7.82;;;2.47;;
51852;SDS011;37894;53.172;6.598;2023-08-07T13:14:52;5.90;;;1.85;;
51852;SDS011;37894;53.172;6.598;2023-08-07T13:17:18;7.63;;;2.08;;
51852;SDS011;37894;53.172;6.598;2023-08-07T13:19:43;5.72;;;2.22;;
51852;SDS011;37894;53.172;6.598;2023-08-07T13:22:09;9.65;;;2.25;;
51852;SDS011;37894;53.172;6.598;2023-08-07T13:24:35;9.38;;;2.55;;
51852;SDS011;37894;53.172;6.598;2023-08-07T13:27:00;7.40;;;2.45;;
51852;SDS011;37894;53.172;6.598;2023-08-07T13:29:26;8.30;;;2.67;;
51852;SDS011;37894;53.172;6.598;2023-08-07T13:31:54;7.15;;;2.45;;
51852;SDS011;37894;53.172;6.598;2023-08-07T13:34:20;10.27;;;2.53;;
51852;SDS011;37894;53.172;6.598;2023-08-07T13:36:46;7.03;;;2.15;;
51852;SDS011;37894;53.172;6.598;2023-08-07T13:39:12;6.63;;;2.25;;
51852;SDS011;37894;53.172;6.598;2023-08-07T13:41:39;7.32;;;2.33;;
51852;SDS011;37894;53.172;6.598;2023-08-07T13:44:04;7.28;;;2.05;;
51852;SDS011;37894;53.172;6.598;2023-08-07T13:46:30;7.57;;;2.47;;
51852;SDS011;37894;53.172;6.598;2023-08-07T13:48:56;6.35;;;2.42;;
51852;SDS011;37894;53.172;6.598;2023-08-07T13:51:21;6.72;;;2.30;;
51852;SDS011;37894;53.172;6.598;2023-08-07T13:53:47;8.45;;;2.25;;
51852;SDS011;37894;53.172;6.598;2023-08-07T13:56:12;10.57;;;3.47;;
51852;SDS011;37894;53.172;6.598;2023-08-07T14:01:04;5.40;;;2.60;;
51852;SDS011;37894;53.172;6.598;2023-08-07T14:03:30;7.53;;;2.20;;
51852;SDS011;37894;53.172;6.598;2023-08-07T14:05:56;7.93;;;2.30;;
51852;SDS011;37894;53.172;6.598;2023-08-07T14:08:22;13.77;;;2.53;;
51852;SDS011;37894;53.172;6.598;2023-08-07T14:10:48;10.77;;;1.95;;
51852;SDS011;37894;53.172;6.598;2023-08-07T14:13:13;5.45;;;1.90;;
51852;SDS011;37894;53.172;6.598;2023-08-07T14:15:39;9.52;;;2.55;;
51852;SDS011;37894;53.172;6.598;2023-08-07T14:18:05;8.02;;;2.10;;
51852;SDS011;37894;53.172;6.598;2023-08-07T14:22:57;9.10;;;2.58;;
51852;SDS011;37894;53.172;6.598;2023-08-07T14:25:24;8.80;;;2.30;;
51852;SDS011;37894;53.172;6.598;2023-08-07T14:27:49;10.27;;;2.70;;
51852;SDS011;37894;53.172;6.598;2023-08-07T14:30:15;10.02;;;2.20;;
51852;SDS011;37894;53.172;6.598;2023-08-07T14:32:41;10.60;;;2.58;;
51852;SDS011;37894;53.172;6.598;2023-08-07T14:35:11;8.85;;;2.03;;
51852;SDS011;37894;53.172;6.598;2023-08-07T14:37:41;5.93;;;2.13;;
51852;SDS011;37894;53.172;6.598;2023-08-07T14:40:08;8.27;;;2.08;;
51852;SDS011;37894;53.172;6.598;2023-08-07T14:42:33;7.32;;;1.70;;
51852;SDS011;37894;53.172;6.598;2023-08-07T14:44:59;9.18;;;2.00;;
51852;SDS011;37894;53.172;6.598;2023-08-07T14:47:25;10.63;;;2.35;;
51852;SDS011;37894;53.172;6.598;2023-08-07T14:49:51;8.45;;;2.45;;
51852;SDS011;37894;53.172;6.598;2023-08-07T14:52:17;6.90;;;2.78;;
51852;SDS011;37894;53.172;6.598;2023-08-07T14:54:43;7.55;;;1.92;;
51852;SDS011;37894;53.172;6.598;2023-08-07T14:57:09;6.32;;;1.88;;